Time;durP1;ratioP1;P1;durP2;ratioP2;P2;SDS_P1;SDS_P2;PMS_P1;PMS_P2;Temp;Humidity;BMP_temperature;BMP_pressure;BME280_temperature;BME280_humidity;BME280_pressure;Samples;Min_cycle;Max_cycle;Signal;HPM_P1;HPM_P2
2023/03/01 00:00:46;;;;;;;15.82;9.60;;;;;;;2.37;50.45;101702.69;4022546;29;20033;-66
2023/03/01 00:02:49;;;;;;;16.98;10.07;;;;;;;2.39;49.92;101702.78;4022939;29;20051;-66
2023/03/01 00:04:52;;;;;;;14.88;10.32;;;;;;;2.34;50.03;101699.91;4017458;29;20051;-66
2023/03/01 00:06:55;;;;;;;16.90;9.32;;;;;;;2.39;50.26;101690.84;4019512;29;20090;-66
2023/03/01 00:08:58;;;;;;;14.55;9.73;;;;;;;2.34;50.75;101692.22;4019473;29;20041;-66
2023/03/01 00:11:02;;;;;;;15.32;9.88;;;;;;;2.35;50.12;101688.88;4017939;29;20042;-66
2023/03/01 00:13:06;;;;;;;15.18;9.68;;;;;;;2.34;50.19;101687.09;4033264;29;20384;-67
2023/03/01 00:15:09;;;;;;;15.18;9.48;;;;;;;2.23;50.70;101688.94;4014419;29;20041;-67
2023/03/01 00:17:13;;;;;;;16.50;10.10;;;;;;;2.26;51.08;101693.38;4017908;29;20128;-66
2023/03/01 00:19:18;;;;;;;14.50;9.73;;;;;;;2.36;49.84;101688.06;4019337;29;20050;-66
2023/03/01 00:21:22;;;;;;;17.50;9.02;;;;;;;2.31;50.46;101691.09;4019492;29;20055;-66
2023/03/01 00:23:26;;;;;;;13.40;9.07;;;;;;;2.27;50.38;101695.16;4015774;29;20480;-66
2023/03/01 00:25:29;;;;;;;16.63;9.65;;;;;;;2.25;50.48;101696.75;4019265;29;20037;-66
2023/03/01 00:27:32;;;;;;;14.18;9.63;;;;;;;2.37;50.67;101699.25;4032039;29;20101;-66
2023/03/01 00:29:35;;;;;;;16.05;10.57;;;;;;;2.36;50.77;101697.44;4017949;29;20128;-66
2023/03/01 00:31:37;;;;;;;15.60;9.77;;;;;;;2.35;49.91;101700.78;4011029;29;20191;-66
2023/03/01 00:33:42;;;;;;;16.73;10.38;;;;;;;2.26;50.41;101693.38;4016260;29;20197;-66
2023/03/01 00:35:45;;;;;;;18.08;10.93;;;;;;;2.27;50.75;101700.28;4017969;29;20037;-66
2023/03/01 00:37:53;;;;;;;17.60;11.25;;;;;;;2.29;51.15;101696.13;4019564;29;20344;-66
2023/03/01 00:39:56;;;;;;;18.15;10.02;;;;;;;2.36;50.93;101703.47;4014078;29;20042;-66
2023/03/01 00:41:58;;;;;;;15.02;9.82;;;;;;;2.28;51.10;101696.94;4017848;29;20057;-66
2023/03/01 00:44:01;;;;;;;15.55;9.52;;;;;;;2.24;50.28;101700.97;4017904;29;20033;-66
2023/03/01 00:46:05;;;;;;;20.90;10.48;;;;;;;2.31;51.00;101709.97;4017954;29;20077;-66
2023/03/01 00:48:08;;;;;;;16.38;10.20;;;;;;;2.17;50.86;101708.16;4000309;29;20130;-66
2023/03/01 00:50:13;;;;;;;16.65;10.50;;;;;;;2.08;51.19;101711.84;4018280;29;20049;-66
2023/03/01 00:52:15;;;;;;;15.98;10.45;;;;;;;2.15;51.20;101720.00;4016337;29;20056;-66
2023/03/01 00:54:18;;;;;;;18.80;10.48;;;;;;;2.19;50.93;101714.25;4017491;29;20489;-66
2023/03/01 00:56:23;;;;;;;15.35;10.82;;;;;;;2.08;51.21;101710.97;4017260;29;20037;-67
2023/03/01 00:58:26;;;;;;;18.58;10.93;;;;;;;2.09;51.82;101710.19;4023176;29;20049;-66
2023/03/01 01:00:29;;;;;;;17.98;11.38;;;;;;;2.05;51.40;101709.06;4018405;29;20046;-66
2023/03/01 01:02:33;;;;;;;17.13;11.50;;;;;;;1.99;51.75;101705.22;4016233;29;20453;-66
2023/03/01 01:04:36;;;;;;;13.60;10.10;;;;;;;1.96;51.77;101702.41;4017612;29;20102;-66
2023/03/01 01:06:43;;;;;;;18.60;11.20;;;;;;;1.88;52.43;101701.91;4028071;29;20045;-66
2023/03/01 01:08:46;;;;;;;17.95;10.93;;;;;;;1.87;51.70;101694.97;4017781;29;20033;-66
2023/03/01 01:10:49;;;;;;;14.93;10.50;;;;;;;1.99;52.05;101692.41;4019674;29;20132;-66
2023/03/01 01:12:52;;;;;;;16.33;10.45;;;;;;;1.89;52.18;101696.00;4013823;29;20045;-66
2023/03/01 01:14:54;;;;;;;17.05;11.18;;;;;;;1.88;52.65;101687.41;4005920;29;20477;-66
2023/03/01 01:16:57;;;;;;;14.68;10.73;;;;;;;1.88;52.42;101691.63;4033336;29;20452;-66
2023/03/01 01:19:00;;;;;;;15.63;11.25;;;;;;;1.93;52.24;101685.16;4020932;29;20037;-66
2023/03/01 01:21:08;;;;;;;17.27;10.23;;;;;;;1.94;52.14;101686.91;4013931;29;20056;-66
2023/03/01 01:23:12;;;;;;;18.02;11.45;;;;;;;2.01;52.34;101685.69;4035793;29;20041;-66
2023/03/01 01:25:15;;;;;;;15.77;10.77;;;;;;;1.96;52.22;101676.78;4021102;29;20530;-67
2023/03/01 01:27:18;;;;;;;20.10;11.38;;;;;;;1.97;51.86;101679.47;4020803;29;20106;-67
2023/03/01 01:29:20;;;;;;;19.42;12.73;;;;;;;1.97;52.20;101676.91;4020129;29;20041;-67
2023/03/01 01:31:25;;;;;;;17.45;10.18;;;;;;;1.98;52.67;101670.97;4013213;29;20045;-67
2023/03/01 01:33:28;;;;;;;18.57;11.87;;;;;;;1.97;52.54;101658.94;4017704;29;20101;-67
2023/03/01 01:35:31;;;;;;;15.15;10.77;;;;;;;1.90;52.49;101657.63;4020826;29;20305;-67
2023/03/01 01:37:34;;;;;;;16.75;11.63;;;;;;;1.90;52.54;101659.31;4035241;29;20037;-67
2023/03/01 01:39:38;;;;;;;19.67;12.50;;;;;;;1.89;52.18;101643.03;4036368;29;20052;-67
2023/03/01 01:41:42;;;;;;;17.45;11.65;;;;;;;1.84;52.82;101640.91;4036108;29;20044;-66
2023/03/01 01:43:48;;;;;;;19.58;12.75;;;;;;;1.75;53.15;101633.50;4036776;29;20036;-66
2023/03/01 01:45:51;;;;;;;21.20;12.40;;;;;;;1.76;53.24;101631.84;4022167;29;20044;-67
2023/03/01 01:47:58;;;;;;;20.77;12.82;;;;;;;1.66;53.51;101644.00;4004441;29;20049;-66
2023/03/01 01:50:02;;;;;;;19.48;12.68;;;;;;;1.61;53.14;101640.25;4024589;29;20515;-66
2023/03/01 01:52:10;;;;;;;18.40;11.70;;;;;;;1.66;53.38;101633.75;4023788;29;20045;-66
2023/03/01 01:54:17;;;;;;;19.45;12.18;;;;;;;1.73;53.69;101627.38;4020768;29;20539;-66
2023/03/01 01:56:23;;;;;;;17.60;11.60;;;;;;;1.72;53.70;101620.47;4020341;29;20049;-66
2023/03/01 01:58:30;;;;;;;16.65;11.48;;;;;;;1.68;53.57;101619.38;4029961;29;20052;-67
2023/03/01 02:00:33;;;;;;;19.45;12.70;;;;;;;1.56;53.63;101621.06;4020277;29;20136;-66
2023/03/01 02:02:37;;;;;;;19.85;11.40;;;;;;;1.62;53.77;101618.97;4020690;29;20041;-66
2023/03/01 02:04:40;;;;;;;17.85;12.50;;;;;;;1.61;53.35;101627.44;4020935;29;20045;-66
2023/03/01 02:06:50;;;;;;;17.67;11.65;;;;;;;1.68;53.31;101619.38;4021588;29;20041;-67
2023/03/01 02:08:53;;;;;;;23.35;13.20;;;;;;;1.59;53.88;101613.59;4020424;29;20033;-66
2023/03/01 02:10:59;;;;;;;22.10;14.05;;;;;;;1.67;53.24;101609.03;4019000;29;20125;-66
2023/03/01 02:13:04;;;;;;;16.98;12.07;;;;;;;1.71;53.09;101606.78;4013270;29;20034;-66
2023/03/01 02:15:08;;;;;;;21.05;11.93;;;;;;;1.65;53.45;101606.34;4019617;29;20038;-67
2023/03/01 02:17:16;;;;;;;18.05;12.45;;;;;;;1.61;53.50;101612.06;4018313;29;20057;-66
2023/03/01 02:19:29;;;;;;;21.15;12.98;;;;;;;1.67;53.31;101601.34;4011262;29;20038;-66
2023/03/01 02:21:42;;;;;;;30.63;13.25;;;;;;;1.61;53.24;101599.22;4028684;29;20407;-66
2023/03/01 02:23:45;;;;;;;19.25;12.73;;;;;;;1.57;53.74;101604.94;4019604;29;20118;-66
2023/03/01 02:25:54;;;;;;;19.02;13.50;;;;;;;1.59;54.01;101598.22;4003985;29;20069;-66
2023/03/01 02:28:06;;;;;;;20.10;12.18;;;;;;;1.64;53.78;101602.00;4024820;29;20105;-66
2023/03/01 02:30:12;;;;;;;21.15;14.48;;;;;;;1.66;53.48;101599.53;4019593;29;20060;-66
2023/03/01 02:32:16;;;;;;;19.15;13.30;;;;;;;1.64;53.75;101599.44;4018710;29;20054;-67
2023/03/01 02:34:24;;;;;;;21.60;13.25;;;;;;;1.69;53.53;101600.63;4017974;29;20093;-66
2023/03/01 02:36:34;;;;;;;16.98;12.40;;;;;;;1.77;53.91;101597.69;4032005;29;20041;-67
2023/03/01 02:38:37;;;;;;;21.40;13.93;;;;;;;1.77;54.63;101590.00;4031330;29;20041;-67
2023/03/01 02:40:41;;;;;;;20.85;13.20;;;;;;;1.71;54.96;101590.50;4033859;29;20144;-66
2023/03/01 02:42:50;;;;;;;21.10;13.88;;;;;;;1.63;54.66;101591.66;4019216;29;20070;-66
2023/03/01 02:44:53;;;;;;;21.00;13.40;;;;;;;1.58;54.89;101586.22;4018009;29;20042;-66
2023/03/01 02:47:02;;;;;;;20.67;13.20;;;;;;;1.49;55.05;101581.34;4016605;29;20041;-66
2023/03/01 02:49:24;;;;;;;23.05;14.27;;;;;;;1.52;55.32;101575.50;4020343;29;20504;-66
2023/03/01 02:51:39;;;;;;;26.17;13.82;;;;;;;1.49;54.96;101570.19;4019897;29;20049;-66
2023/03/01 02:53:49;;;;;;;20.90;13.32;;;;;;;1.44;55.19;101571.56;4019337;29;20077;-66
2023/03/01 02:55:52;;;;;;;24.60;12.88;;;;;;;1.42;55.33;101565.41;4018712;29;20083;-66
2023/03/01 02:57:56;;;;;;;21.83;13.55;;;;;;;1.39;54.90;101569.56;4030718;29;20499;-66
2023/03/01 03:00:06;;;;;;;22.63;13.48;;;;;;;1.33;55.26;101571.72;4017325;29;20041;-67
2023/03/01 03:02:35;;;;;;;21.40;13.45;;;;;;;1.32;55.42;101566.47;4032468;29;20089;-66
2023/03/01 03:04:41;;;;;;;23.58;12.95;;;;;;;1.36;55.83;101564.22;4032440;29;20077;-66
2023/03/01 03:06:45;;;;;;;22.98;13.60;;;;;;;1.25;56.12;101570.28;4019422;29;20034;-66
2023/03/01 03:08:48;;;;;;;19.55;12.63;;;;;;;1.22;56.04;101559.81;4031575;29;20463;-66
2023/03/01 03:10:51;;;;;;;19.75;13.18;;;;;;;1.12;55.95;101558.28;4032045;29;20041;-66
2023/03/01 03:12:56;;;;;;;23.05;13.15;;;;;;;1.06;56.71;101562.09;4017054;29;20098;-66
2023/03/01 03:14:59;;;;;;;21.38;13.73;;;;;;;0.96;56.75;101561.41;4031953;29;20070;-66
2023/03/01 03:17:06;;;;;;;24.17;13.65;;;;;;;0.95;56.68;101553.63;4025444;29;20048;-66
2023/03/01 03:19:10;;;;;;;22.45;14.18;;;;;;;0.91;57.09;101551.66;4015608;29;20465;-66
2023/03/01 03:21:13;;;;;;;21.35;13.95;;;;;;;0.88;57.26;101560.00;4019252;29;20049;-66
2023/03/01 03:23:16;;;;;;;21.15;14.20;;;;;;;0.94;57.15;101557.88;4018538;29;20534;-66
2023/03/01 03:25:20;;;;;;;21.00;13.15;;;;;;;0.92;56.95;101554.34;4018604;29;20030;-66
2023/03/01 03:27:24;;;;;;;20.55;13.88;;;;;;;0.89;57.37;101548.09;4019755;29;20033;-66
2023/03/01 03:29:27;;;;;;;23.30;13.30;;;;;;;0.92;57.43;101544.09;4019728;29;20045;-67
2023/03/01 03:31:30;;;;;;;26.98;15.63;;;;;;;0.82;57.72;101537.41;4018730;29;20048;-67
2023/03/01 03:33:33;;;;;;;19.90;12.95;;;;;;;0.87;57.83;101540.31;4031982;29;20052;-67
2023/03/01 03:35:42;;;;;;;22.02;14.05;;;;;;;0.92;57.81;101538.97;4014550;29;20049;-66
2023/03/01 03:38:02;;;;;;;21.70;13.55;;;;;;;0.85;57.51;101536.75;4019062;29;20041;-67
2023/03/01 03:40:15;;;;;;;21.08;13.80;;;;;;;0.87;57.63;101541.19;4015770;29;20530;-66
2023/03/01 03:42:17;;;;;;;20.77;13.85;;;;;;;0.91;57.33;101529.50;4020346;29;20414;-66
2023/03/01 03:44:20;;;;;;;25.58;14.50;;;;;;;0.90;57.64;101532.84;4020258;29;20481;-66
2023/03/01 03:46:23;;;;;;;21.23;13.93;;;;;;;0.82;58.29;101534.88;4020077;29;20048;-66
2023/03/01 03:48:26;;;;;;;19.05;13.55;;;;;;;0.86;58.54;101542.00;4018124;29;20098;-67
2023/03/01 03:50:30;;;;;;;22.15;12.98;;;;;;;0.84;58.59;101537.53;4022282;29;20049;-66
2023/03/01 03:52:34;;;;;;;22.73;13.40;;;;;;;0.87;57.84;101540.31;4020195;29;20053;-67
2023/03/01 03:54:37;;;;;;;23.02;14.30;;;;;;;0.79;58.34;101544.88;4020336;29;20472;-66
2023/03/01 03:56:40;;;;;;;20.10;12.70;;;;;;;0.79;58.02;101536.28;4020126;29;20553;-66
2023/03/01 03:58:42;;;;;;;17.75;13.63;;;;;;;0.83;58.35;101544.34;4018751;29;20041;-67
2023/03/01 04:00:46;;;;;;;20.58;12.75;;;;;;;0.92;58.13;101543.19;4018527;29;20038;-66
2023/03/01 04:02:49;;;;;;;20.75;14.05;;;;;;;0.86;58.04;101536.88;4017989;29;20042;-66
2023/03/01 04:04:52;;;;;;;20.42;14.18;;;;;;;0.91;58.28;101534.63;4019165;29;20041;-66
2023/03/01 04:06:55;;;;;;;22.40;14.20;;;;;;;0.95;57.48;101528.94;4015978;29;20179;-66
2023/03/01 04:09:02;;;;;;;23.05;14.25;;;;;;;0.95;57.76;101528.94;4015307;29;20041;-66
2023/03/01 04:13:25;;;;;;;22.13;13.73;;;;;;;0.90;57.73;101525.16;4021157;29;20519;-66
2023/03/01 04:15:28;;;;;;;22.88;13.48;;;;;;;0.75;58.00;101521.53;4022344;29;20135;-67
2023/03/01 04:17:31;;;;;;;17.88;12.55;;;;;;;0.64;57.95;101519.09;4018716;29;20044;-67
2023/03/01 04:19:35;;;;;;;22.27;14.48;;;;;;;0.60;58.24;101528.97;4019985;29;20039;-66
2023/03/01 04:21:38;;;;;;;21.70;14.30;;;;;;;0.71;58.46;101534.88;4019846;29;20041;-66
2023/03/01 04:23:41;;;;;;;22.60;13.40;;;;;;;0.68;58.59;101533.88;4018897;29;20037;-66
2023/03/01 04:25:53;;;;;;;23.77;15.43;;;;;;;0.75;57.92;101531.78;4020183;29;20069;-66
2023/03/01 04:27:56;;;;;;;23.15;15.82;;;;;;;0.81;58.01;101529.63;4014384;29;20076;-66
2023/03/01 04:29:59;;;;;;;23.25;14.02;;;;;;;0.93;57.50;101537.28;4017565;29;20429;-66
2023/03/01 04:32:02;;;;;;;25.38;15.20;;;;;;;0.97;57.31;101535.03;4016597;29;20049;-66
2023/03/01 04:34:05;;;;;;;23.92;15.32;;;;;;;1.02;57.23;101532.81;4018353;29;20514;-66
2023/03/01 04:36:09;;;;;;;25.20;15.02;;;;;;;1.01;57.01;101537.03;4015794;29;20424;-66
2023/03/01 04:38:12;;;;;;;20.55;13.75;;;;;;;1.04;56.78;101529.56;4018935;29;20053;-66
2023/03/01 04:40:16;;;;;;;25.05;14.18;;;;;;;0.99;56.70;101533.50;4015285;29;20049;-67
2023/03/01 04:42:21;;;;;;;26.52;13.85;;;;;;;0.95;57.28;101528.94;4018041;29;20048;-67
2023/03/01 04:44:23;;;;;;;23.10;14.40;;;;;;;0.95;57.01;101528.03;4018306;29;20052;-67
2023/03/01 04:46:26;;;;;;;20.90;14.60;;;;;;;0.97;57.00;101536.72;4009241;29;20042;-67
2023/03/01 04:48:29;;;;;;;20.95;13.57;;;;;;;1.14;56.47;101525.09;4020697;29;20045;-67
2023/03/01 04:50:32;;;;;;;25.60;15.50;;;;;;;0.88;56.65;101526.72;4021501;29;20049;-67
2023/03/01 04:52:36;;;;;;;28.02;14.82;;;;;;;0.86;56.72;101533.41;4020814;29;21383;-66
2023/03/01 04:54:39;;;;;;;21.63;13.95;;;;;;;0.86;56.47;101534.31;4021744;29;20046;-66
2023/03/01 04:56:41;;;;;;;23.17;14.02;;;;;;;0.98;56.48;101524.03;4022716;29;20101;-66
2023/03/01 04:58:46;;;;;;;21.55;13.82;;;;;;;1.11;56.07;101530.00;4020597;29;20124;-66
2023/03/01 05:00:49;;;;;;;21.38;14.40;;;;;;;1.09;55.50;101526.44;4017969;29;20079;-66
2023/03/01 05:02:55;;;;;;;23.35;14.23;;;;;;;0.99;56.08;101530.94;4017892;29;20052;-66
2023/03/01 05:04:58;;;;;;;26.95;14.60;;;;;;;1.14;55.70;101530.22;4015916;29;20054;-66
2023/03/01 05:07:00;;;;;;;25.45;14.20;;;;;;;1.08;55.94;101530.69;4021283;29;20429;-66
2023/03/01 05:09:03;;;;;;;25.95;15.25;;;;;;;1.02;56.04;101525.13;4020832;29;20049;-67
2023/03/01 05:11:08;;;;;;;23.55;13.88;;;;;;;1.22;55.53;101521.41;4021066;29;20492;-66
2023/03/01 05:13:13;;;;;;;;;;;;;;;1.11;55.69;101522.31;4041383;23;20049;-64
2023/03/01 05:15:17;;;;;;;22.25;14.32;;;;;;;1.19;55.68;101518.63;4037745;29;19935;-66
2023/03/01 05:17:20;;;;;;;26.90;15.57;;;;;;;1.19;55.44;101509.25;4036637;29;20414;-65
2023/03/01 05:19:23;;;;;;;23.20;15.43;;;;;;;1.20;55.67;101522.97;4031003;29;20109;-65
2023/03/01 05:21:26;;;;;;;21.70;14.32;;;;;;;1.31;55.02;101521.13;4037290;29;20049;-66
2023/03/01 05:23:29;;;;;;;27.30;16.33;;;;;;;1.23;55.10;101515.50;4035896;29;20052;-66
2023/03/01 05:25:34;;;;;;;27.48;15.63;;;;;;;1.13;55.86;101513.09;4037419;29;20070;-66
2023/03/01 05:27:37;;;;;;;;;;;;;;;1.17;55.33;101515.09;4034501;29;20033;-65
2023/03/01 05:29:40;;;;;;;24.10;15.57;;;;;;;1.16;55.62;101523.53;4034823;29;19927;-65
2023/03/01 05:31:44;;;;;;;26.42;16.10;;;;;;;1.19;55.32;101518.63;4034205;29;20047;-66
2023/03/01 05:33:47;;;;;;;25.13;15.85;;;;;;;1.10;55.53;101518.00;4032639;29;20129;-66
2023/03/01 05:35:51;;;;;;;27.15;16.23;;;;;;;1.14;55.59;101518.31;4035620;29;20101;-66
2023/03/01 05:37:54;;;;;;;22.85;15.40;;;;;;;1.11;55.91;101519.75;4036916;29;20141;-66
2023/03/01 05:39:57;;;;;;;24.77;15.00;;;;;;;1.16;55.69;101519.28;4034648;29;20507;-66
2023/03/01 05:42:02;;;;;;;23.45;17.58;;;;;;;1.20;55.33;101523.84;4036754;29;20399;-66
2023/03/01 05:44:06;;;;;;;;;;;;;;;1.19;55.41;101523.75;4037579;29;20049;-66
2023/03/01 05:46:12;;;;;;;23.95;14.60;;;;;;;1.22;55.31;101523.97;4036912;29;19935;-65
2023/03/01 05:48:16;;;;;;;27.15;16.33;;;;;;;1.15;55.84;101521.75;4031637;29;20053;-66
2023/03/01 05:50:21;;;;;;;24.10;16.50;;;;;;;1.17;55.58;101518.53;4036747;29;20041;-66
2023/03/01 05:52:24;;;;;;;24.70;16.20;;;;;;;1.29;55.29;101515.91;4035863;29;20045;-66
2023/03/01 05:54:27;;;;;;;23.95;15.23;;;;;;;1.30;55.37;101520.25;4037782;29;20045;-65
2023/03/01 05:56:30;;;;;;;25.50;16.25;;;;;;;1.22;55.42;101509.47;4036159;29;20384;-65
2023/03/01 05:58:33;;;;;;;30.23;17.17;;;;;;;1.18;55.85;101519.41;4036841;29;20483;-66
2023/03/01 06:00:36;;;;;;;25.20;16.00;;;;;;;1.26;55.50;101517.38;4035332;29;20041;-66
2023/03/01 06:02:39;;;;;;;24.65;16.45;;;;;;;1.26;55.34;101510.59;4036637;29;20108;-66
2023/03/01 06:04:43;;;;;;;24.60;16.92;;;;;;;1.16;56.23;101503.06;4036902;29;20518;-66
2023/03/01 06:06:46;;;;;;;25.35;18.13;;;;;;;1.21;55.23;101514.47;4034437;29;20059;-66
2023/03/01 06:08:49;;;;;;;27.08;17.58;;;;;;;1.26;55.27;101514.81;4036834;29;20547;-66
2023/03/01 06:10:52;;;;;;;23.80;16.42;;;;;;;1.22;55.88;101516.28;4035667;29;20496;-66
2023/03/01 06:12:55;;;;;;;25.00;15.05;;;;;;;1.20;55.77;101522.97;4042180;29;20033;-65
2023/03/01 06:14:58;;;;;;;23.58;16.27;;;;;;;1.36;55.41;101514.66;4032962;29;20527;-66
2023/03/01 06:17:01;;;;;;;24.65;15.65;;;;;;;1.28;55.46;101514.13;4035406;29;20059;-65
2023/03/01 06:19:03;;;;;;;24.85;16.45;;;;;;;1.52;54.79;101519.13;4019227;29;20473;-66
2023/03/01 06:21:08;;;;;;;23.08;14.60;;;;;;;1.39;55.05;101523.44;4033035;29;20053;-66
2023/03/01 06:23:11;;;;;;;22.90;16.23;;;;;;;1.46;54.99;101518.72;4049486;29;20515;-66
2023/03/01 06:25:17;;;;;;;28.83;15.65;;;;;;;1.42;54.71;101509.97;4034464;29;20049;-66
2023/03/01 06:27:20;;;;;;;23.75;15.68;;;;;;;1.33;55.31;101515.34;4027941;29;20044;-67
2023/03/01 06:29:23;;;;;;;33.72;18.00;;;;;;;1.47;55.21;101525.63;4032160;29;20045;-66
2023/03/01 06:31:26;;;;;;;20.33;14.65;;;;;;;1.45;55.23;101514.41;4034048;29;20041;-66
2023/03/01 06:33:29;;;;;;;21.92;15.23;;;;;;;1.64;54.50;101509.72;4033846;29;20097;-66
2023/03/01 06:35:32;;;;;;;26.88;16.67;;;;;;;1.52;54.58;101521.69;4033126;29;20503;-66
2023/03/01 06:37:36;;;;;;;25.63;16.98;;;;;;;1.44;54.89;101517.75;4032758;29;20037;-66
2023/03/01 06:39:40;;;;;;;21.95;15.23;;;;;;;1.42;55.10;101514.16;4035504;29;20044;-66
2023/03/01 06:41:43;;;;;;;26.02;16.73;;;;;;;1.53;55.09;101520.94;4026420;29;20043;-66
2023/03/01 06:43:45;;;;;;;25.38;16.90;;;;;;;1.54;55.02;101515.91;4026932;29;20044;-66
2023/03/01 06:45:48;;;;;;;28.45;16.13;;;;;;;1.56;54.50;101513.44;4027540;29;20098;-68
2023/03/01 06:47:51;;;;;;;29.80;17.17;;;;;;;1.63;53.67;101502.81;4033890;29;20037;-68
2023/03/01 06:49:54;;;;;;;24.45;16.60;;;;;;;1.65;53.96;101511.53;4029771;29;20472;-68
2023/03/01 06:51:57;;;;;;;30.05;16.50;;;;;;;1.66;53.85;101505.59;4031576;29;20128;-67
2023/03/01 06:54:01;;;;;;;25.17;16.42;;;;;;;1.74;53.61;101509.56;4033367;29;20063;-67
2023/03/01 06:56:04;;;;;;;27.85;16.38;;;;;;;1.68;54.07;101505.69;4035754;29;20040;-67
2023/03/01 06:58:07;;;;;;;24.25;15.98;;;;;;;1.79;54.03;101512.41;4033719;29;20045;-67
2023/03/01 07:00:11;;;;;;;29.48;17.60;;;;;;;1.71;53.75;101501.66;4036429;29;20140;-67
2023/03/01 07:02:15;;;;;;;23.30;15.63;;;;;;;1.68;53.99;101509.16;4037332;29;20101;-67
2023/03/01 07:04:17;;;;;;;24.38;15.82;;;;;;;1.80;53.87;101518.47;4036332;29;20070;-67
2023/03/01 07:06:20;;;;;;;25.40;16.83;;;;;;;1.84;53.16;101513.63;4037703;29;20053;-68
2023/03/01 07:08:23;;;;;;;29.70;18.00;;;;;;;1.81;53.79;101507.41;4037349;29;20517;-68
2023/03/01 07:10:27;;;;;;;27.65;17.80;;;;;;;1.91;52.98;101505.56;4036110;29;20049;-67
2023/03/01 07:12:30;;;;;;;26.55;16.33;;;;;;;1.97;52.95;101511.88;4029885;29;20053;-68
2023/03/01 07:14:34;;;;;;;27.90;16.92;;;;;;;1.84;53.56;101510.16;4036811;29;20037;-67
2023/03/01 07:16:37;;;;;;;23.98;16.40;;;;;;;1.84;53.26;101508.50;4032761;29;20048;-67
2023/03/01 07:18:40;;;;;;;26.55;16.70;;;;;;;1.96;53.04;101503.28;4026140;29;20042;-67
2023/03/01 07:20:43;;;;;;;25.35;16.70;;;;;;;1.94;53.05;101501.41;4032810;29;20048;-67
2023/03/01 07:22:45;;;;;;;25.15;15.68;;;;;;;1.90;53.19;101500.34;4032788;29;20096;-68
2023/03/01 07:24:48;;;;;;;24.98;17.17;;;;;;;2.08;52.48;101493.81;4033683;29;20437;-68
2023/03/01 07:26:53;;;;;;;25.95;16.90;;;;;;;2.06;52.59;101489.41;4019740;29;20098;-68
2023/03/01 07:28:56;;;;;;;24.52;15.90;;;;;;;2.03;52.68;101489.19;4036231;29;20037;-67
2023/03/01 07:31:02;;;;;;;26.98;16.58;;;;;;;1.99;52.68;101482.09;4031573;29;20051;-67
2023/03/01 07:33:05;;;;;;;25.48;15.77;;;;;;;1.95;52.58;101487.81;4035113;29;20037;-68
2023/03/01 07:35:08;;;;;;;29.80;15.50;;;;;;;1.98;53.01;101488.88;4033738;29;20484;-67
2023/03/01 07:37:11;;;;;;;25.00;15.52;;;;;;;1.98;52.88;101485.44;4027322;29;20059;-67
2023/03/01 07:39:14;;;;;;;25.10;15.70;;;;;;;1.95;53.08;101485.25;4026148;29;20040;-67
2023/03/01 07:41:17;;;;;;;26.67;16.45;;;;;;;1.90;53.12;101487.50;4025767;29;20109;-67
2023/03/01 07:43:21;;;;;;;26.15;16.13;;;;;;;1.98;53.31;101477.75;4030791;29;21258;-67
2023/03/01 07:45:24;;;;;;;24.58;15.75;;;;;;;2.07;53.01;101473.22;4034805;29;20077;-66
2023/03/01 07:47:27;;;;;;;27.25;15.23;;;;;;;2.10;53.46;101481.09;4031043;29;20504;-66
2023/03/01 07:49:30;;;;;;;25.20;14.52;;;;;;;2.11;53.13;101479.44;4035466;29;20051;-67
2023/03/01 07:51:33;;;;;;;25.00;15.20;;;;;;;2.24;52.89;101482.88;4034763;29;20384;-66
2023/03/01 07:53:36;;;;;;;23.30;15.27;;;;;;;2.21;52.27;101474.13;4036172;29;20496;-66
2023/03/01 07:55:39;;;;;;;25.92;16.13;;;;;;;2.33;52.02;101474.88;4032519;29;20037;-66
2023/03/01 07:57:42;;;;;;;33.63;15.52;;;;;;;2.30;52.38;101477.25;4030856;29;20525;-67
2023/03/01 07:59:46;;;;;;;24.15;15.40;;;;;;;2.32;52.38;101478.22;4035051;29;20041;-66
2023/03/01 08:01:48;;;;;;;24.77;16.60;;;;;;;2.26;52.69;101472.72;4034687;29;20068;-66
2023/03/01 08:03:51;;;;;;;22.35;15.18;;;;;;;2.19;53.00;101476.59;4035776;29;20057;-67
2023/03/01 08:05:54;;;;;;;25.95;15.45;;;;;;;2.16;53.26;101467.78;4036942;29;20059;-68
2023/03/01 08:07:57;;;;;;;24.73;16.08;;;;;;;2.46;52.26;101462.84;4021306;29;20055;-66
2023/03/01 08:10:00;;;;;;;27.83;16.13;;;;;;;2.48;52.21;101463.81;4021656;29;20051;-66
2023/03/01 08:12:04;;;;;;;23.90;15.93;;;;;;;2.50;52.43;101457.09;4021186;29;20080;-67
2023/03/01 08:14:07;;;;;;;25.35;16.63;;;;;;;2.59;52.00;101453.44;4036116;29;20535;-66
2023/03/01 08:16:14;;;;;;;24.25;16.58;;;;;;;2.57;52.23;101455.03;4036610;29;20057;-66
2023/03/01 08:18:17;;;;;;;23.98;15.40;;;;;;;2.67;51.88;101448.78;4025536;29;20539;-66
2023/03/01 08:20:20;;;;;;;25.88;16.38;;;;;;;2.74;51.13;101458.63;4029437;29;20102;-67
2023/03/01 08:22:23;;;;;;;23.58;15.07;;;;;;;2.82;50.96;101450.50;4029325;29;20048;-66
2023/03/01 08:24:26;;;;;;;26.08;15.65;;;;;;;2.83;50.67;101452.28;4038308;29;20045;-66
2023/03/01 08:26:29;;;;;;;26.08;16.45;;;;;;;2.90;50.93;101444.19;4034950;29;20037;-66
2023/03/01 08:28:33;;;;;;;22.67;16.90;;;;;;;2.80;51.24;101445.28;4034938;29;20496;-66
2023/03/01 08:30:35;;;;;;;26.15;16.38;;;;;;;2.76;51.23;101453.59;4036949;29;20060;-66
2023/03/01 08:32:40;;;;;;;26.10;15.15;;;;;;;2.89;51.50;101448.44;4036086;29;20049;-65
2023/03/01 08:34:43;;;;;;;25.40;16.70;;;;;;;2.84;51.42;101448.94;4031226;29;20045;-66
2023/03/01 08:36:47;;;;;;;24.02;15.75;;;;;;;3.07;49.97;101448.66;4033979;29;20038;-67
2023/03/01 08:38:50;;;;;;;26.05;16.17;;;;;;;3.03;50.15;101443.25;4038829;29;20047;-66
2023/03/01 08:40:52;;;;;;;23.25;14.93;;;;;;;3.00;51.11;101449.09;4029750;29;20118;-67
2023/03/01 08:42:55;;;;;;;23.60;15.95;;;;;;;3.09;50.20;101441.91;4037063;29;20407;-67
2023/03/01 08:44:58;;;;;;;29.45;16.52;;;;;;;3.14;50.45;101448.25;4029485;29;20531;-67
2023/03/01 08:47:02;;;;;;;25.88;16.15;;;;;;;3.24;49.81;101441.06;4034844;29;20115;-67
2023/03/01 08:49:07;;;;;;;24.13;16.40;;;;;;;3.30;49.74;101439.75;4031850;29;20526;-67
2023/03/01 08:51:12;;;;;;;24.88;17.00;;;;;;;3.24;49.64;101430.78;4035327;29;20084;-68
2023/03/01 08:53:15;;;;;;;23.48;16.77;;;;;;;3.21;50.04;101430.59;4038045;29;20452;-68
2023/03/01 08:55:17;;;;;;;25.20;16.60;;;;;;;3.24;49.72;101441.97;4039224;29;20052;-67
2023/03/01 08:57:20;;;;;;;30.27;17.83;;;;;;;3.42;49.20;101436.16;4036827;29;20044;-67
2023/03/01 08:59:23;;;;;;;24.23;15.35;;;;;;;3.33;49.28;101423.66;4036958;29;20045;-68
2023/03/01 09:01:26;;;;;;;26.80;16.17;;;;;;;3.40;49.30;101430.00;4038275;29;20049;-68
2023/03/01 09:03:29;;;;;;;23.70;15.35;;;;;;;3.46;49.73;101423.56;4039175;29;20041;-66
2023/03/01 09:05:36;;;;;;;27.17;15.75;;;;;;;3.54;48.93;101423.13;4038074;29;20047;-65
2023/03/01 09:07:39;;;;;;;25.20;16.17;;;;;;;3.53;48.79;101426.50;4045903;29;20067;-65
2023/03/01 09:09:42;;;;;;;27.15;16.40;;;;;;;3.39;49.58;101418.84;4050112;29;20033;-65
2023/03/01 09:11:46;;;;;;;25.25;17.23;;;;;;;3.45;49.52;101415.75;4040930;29;20041;-65
2023/03/01 09:13:50;;;;;;;26.20;16.50;;;;;;;3.69;48.92;101411.13;4035438;29;20519;-65
2023/03/01 09:15:52;;;;;;;23.85;16.20;;;;;;;3.64;49.02;101398.03;4028225;29;20436;-65
2023/03/01 09:17:55;;;;;;;24.95;16.27;;;;;;;3.75;48.41;101398.66;4032753;29;20041;-65
2023/03/01 09:19:59;;;;;;;29.52;16.98;;;;;;;3.78;48.66;101403.97;4027878;29;20070;-65
2023/03/01 09:22:04;;;;;;;23.92;16.60;;;;;;;3.73;49.10;101397.66;4037025;29;20036;-65
2023/03/01 09:24:08;;;;;;;24.02;16.73;;;;;;;3.77;49.16;101398.75;4035216;29;20041;-65
2023/03/01 09:26:13;;;;;;;23.17;16.20;;;;;;;3.77;49.55;101403.88;4037399;29;20049;-65
2023/03/01 09:28:15;;;;;;;25.58;18.13;;;;;;;3.88;49.17;101412.19;4034718;29;20712;-64
2023/03/01 09:30:31;;;;;;;23.83;16.60;;;;;;;4.10;48.45;101410.00;4048772;29;20433;-65
2023/03/01 09:32:34;;;;;;;25.95;17.25;;;;;;;4.12;48.81;101407.56;4032491;29;20618;-64
2023/03/01 09:35:00;;;;;;;27.23;16.90;;;;;;;4.12;48.18;101405.84;4033584;29;20459;-65